sensor_id;sensor_type;location;lat;lon;timestamp;P1;durP1;ratioP1;P2;durP2;ratioP2
10659;SDS011;5378;53.206;13.316;2024-03-08T00:02:15;29.67;;;10.27;;
10659;SDS011;5378;53.206;13.316;2024-03-08T00:05:02;33.60;;;10.67;;
10659;SDS011;5378;53.206;13.316;2024-03-08T00:07:50;51.73;;;11.73;;
10659;SDS011;5378;53.206;13.316;2024-03-08T00:10:37;36.83;;;12.67;;
10659;SDS011;5378;53.206;13.316;2024-03-08T00:13:25;26.63;;;10.63;;
10659;SDS011;5378;53.206;13.316;2024-03-08T00:16:13;36.67;;;12.53;;
10659;SDS011;5378;53.206;13.316;2024-03-08T00:19:00;36.23;;;11.57;;
10659;SDS011;5378;53.206;13.316;2024-03-08T00:21:47;36.10;;;12.07;;
10659;SDS011;5378;53.206;13.316;2024-03-08T00:24:34;28.03;;;9.87;;
10659;SDS011;5378;53.206;13.316;2024-03-08T00:27:22;43.87;;;12.53;;
10659;SDS011;5378;53.206;13.316;2024-03-08T00:30:10;31.77;;;10.57;;
10659;SDS011;5378;53.206;13.316;2024-03-08T00:33:00;22.53;;;9.30;;
10659;SDS011;5378;53.206;13.316;2024-03-08T00:35:47;54.07;;;11.53;;
10659;SDS011;5378;53.206;13.316;2024-03-08T00:38:34;21.70;;;9.27;;
10659;SDS011;5378;53.206;13.316;2024-03-08T00:41:22;34.17;;;11.23;;
10659;SDS011;5378;53.206;13.316;2024-03-08T00:44:11;28.63;;;9.83;;
10659;SDS011;5378;53.206;13.316;2024-03-08T00:46:59;40.97;;;11.60;;
10659;SDS011;5378;53.206;13.316;2024-03-08T00:49:47;38.13;;;12.03;;
10659;SDS011;5378;53.206;13.316;2024-03-08T00:52:34;40.67;;;11.67;;
10659;SDS011;5378;53.206;13.316;2024-03-08T00:55:21;42.53;;;11.32;;
10659;SDS011;5378;53.206;13.316;2024-03-08T00:58:08;32.05;;;11.30;;
10659;SDS011;5378;53.206;13.316;2024-03-08T01:00:55;32.17;;;11.80;;
10659;SDS011;5378;53.206;13.316;2024-03-08T01:03:43;35.22;;;11.38;;
10659;SDS011;5378;53.206;13.316;2024-03-08T01:06:31;33.78;;;11.90;;
10659;SDS011;5378;53.206;13.316;2024-03-08T01:09:19;31.30;;;11.48;;
10659;SDS011;5378;53.206;13.316;2024-03-08T01:12:07;32.15;;;10.95;;
10659;SDS011;5378;53.206;13.316;2024-03-08T01:14:56;36.05;;;11.18;;
10659;SDS011;5378;53.206;13.316;2024-03-08T01:17:44;33.00;;;9.57;;
10659;SDS011;5378;53.206;13.316;2024-03-08T01:20:31;31.38;;;10.77;;
10659;SDS011;5378;53.206;13.316;2024-03-08T01:23:20;26.73;;;11.40;;
10659;SDS011;5378;53.206;13.316;2024-03-08T01:26:07;26.83;;;11.43;;
10659;SDS011;5378;53.206;13.316;2024-03-08T01:28:54;33.03;;;11.30;;
10659;SDS011;5378;53.206;13.316;2024-03-08T01:31:41;44.90;;;11.68;;
10659;SDS011;5378;53.206;13.316;2024-03-08T01:34:28;21.77;;;10.43;;
10659;SDS011;5378;53.206;13.316;2024-03-08T01:37:15;52.10;;;13.20;;
10659;SDS011;5378;53.206;13.316;2024-03-08T01:40:05;32.17;;;10.80;;
10659;SDS011;5378;53.206;13.316;2024-03-08T01:42:54;32.97;;;11.18;;
10659;SDS011;5378;53.206;13.316;2024-03-08T01:45:41;38.75;;;11.25;;
10659;SDS011;5378;53.206;13.316;2024-03-08T01:48:28;33.90;;;12.60;;
10659;SDS011;5378;53.206;13.316;2024-03-08T01:51:15;37.70;;;11.43;;
10659;SDS011;5378;53.206;13.316;2024-03-08T01:54:03;33.85;;;10.35;;
10659;SDS011;5378;53.206;13.316;2024-03-08T01:56:52;35.42;;;10.68;;
10659;SDS011;5378;53.206;13.316;2024-03-08T01:59:40;38.47;;;12.15;;
10659;SDS011;5378;53.206;13.316;2024-03-08T02:02:29;40.95;;;11.90;;
10659;SDS011;5378;53.206;13.316;2024-03-08T02:05:18;30.23;;;12.00;;
10659;SDS011;5378;53.206;13.316;2024-03-08T02:08:06;28.48;;;11.43;;
10659;SDS011;5378;53.206;13.316;2024-03-08T02:10:58;33.05;;;12.40;;
10659;SDS011;5378;53.206;13.316;2024-03-08T02:13:46;41.15;;;12.07;;
10659;SDS011;5378;53.206;13.316;2024-03-08T02:16:33;33.72;;;9.98;;
10659;SDS011;5378;53.206;13.316;2024-03-08T02:19:20;33.80;;;11.52;;
10659;SDS011;5378;53.206;13.316;2024-03-08T02:22:08;38.00;;;11.77;;
10659;SDS011;5378;53.206;13.316;2024-03-08T02:24:56;35.47;;;12.18;;
10659;SDS011;5378;53.206;13.316;2024-03-08T02:27:46;42.17;;;12.88;;
10659;SDS011;5378;53.206;13.316;2024-03-08T02:30:33;30.67;;;10.83;;
10659;SDS011;5378;53.206;13.316;2024-03-08T02:33:21;23.70;;;9.57;;
10659;SDS011;5378;53.206;13.316;2024-03-08T02:36:09;34.70;;;12.38;;
10659;SDS011;5378;53.206;13.316;2024-03-08T02:38:58;39.50;;;11.20;;
10659;SDS011;5378;53.206;13.316;2024-03-08T02:41:46;35.72;;;11.48;;
10659;SDS011;5378;53.206;13.316;2024-03-08T02:44:33;36.70;;;11.55;;
10659;SDS011;5378;53.206;13.316;2024-03-08T02:47:20;39.72;;;11.30;;
10659;SDS011;5378;53.206;13.316;2024-03-08T02:50:08;34.73;;;11.93;;
10659;SDS011;5378;53.206;13.316;2024-03-08T02:52:57;34.85;;;12.48;;
10659;SDS011;5378;53.206;13.316;2024-03-08T02:55:45;50.35;;;14.85;;
10659;SDS011;5378;53.206;13.316;2024-03-08T02:58:32;27.77;;;11.17;;
10659;SDS011;5378;53.206;13.316;2024-03-08T03:01:19;37.25;;;11.43;;
10659;SDS011;5378;53.206;13.316;2024-03-08T03:04:07;34.90;;;11.65;;
10659;SDS011;5378;53.206;13.316;2024-03-08T03:06:54;38.65;;;13.07;;
10659;SDS011;5378;53.206;13.316;2024-03-08T03:09:41;36.05;;;13.25;;
10659;SDS011;5378;53.206;13.316;2024-03-08T03:12:30;30.98;;;12.52;;
10659;SDS011;5378;53.206;13.316;2024-03-08T03:15:19;32.63;;;11.95;;
10659;SDS011;5378;53.206;13.316;2024-03-08T03:18:06;37.85;;;11.93;;
10659;SDS011;5378;53.206;13.316;2024-03-08T03:20:54;37.95;;;12.57;;
10659;SDS011;5378;53.206;13.316;2024-03-08T03:23:41;42.65;;;11.90;;
10659;SDS011;5378;53.206;13.316;2024-03-08T03:26:28;45.93;;;11.67;;
10659;SDS011;5378;53.206;13.316;2024-03-08T03:29:17;46.17;;;14.88;;
10659;SDS011;5378;53.206;13.316;2024-03-08T03:32:05;48.38;;;14.48;;
10659;SDS011;5378;53.206;13.316;2024-03-08T03:34:53;44.42;;;13.55;;
10659;SDS011;5378;53.206;13.316;2024-03-08T03:37:40;35.35;;;12.32;;
10659;SDS011;5378;53.206;13.316;2024-03-08T03:40:31;40.38;;;13.35;;
10659;SDS011;5378;53.206;13.316;2024-03-08T03:43:18;38.97;;;12.90;;
10659;SDS011;5378;53.206;13.316;2024-03-08T03:46:07;40.72;;;13.18;;
10659;SDS011;5378;53.206;13.316;2024-03-08T03:48:56;37.95;;;13.23;;
10659;SDS011;5378;53.206;13.316;2024-03-08T03:51:43;48.55;;;11.93;;
10659;SDS011;5378;53.206;13.316;2024-03-08T03:54:30;40.00;;;12.63;;
10659;SDS011;5378;53.206;13.316;2024-03-08T03:57:18;32.03;;;12.27;;
10659;SDS011;5378;53.206;13.316;2024-03-08T04:00:06;44.03;;;12.70;;
10659;SDS011;5378;53.206;13.316;2024-03-08T04:03:01;34.15;;;11.35;;
10659;SDS011;5378;53.206;13.316;2024-03-08T04:05:48;30.52;;;11.00;;
10659;SDS011;5378;53.206;13.316;2024-03-08T04:08:35;32.50;;;11.55;;
10659;SDS011;5378;53.206;13.316;2024-03-08T04:11:22;47.13;;;13.05;;
10659;SDS011;5378;53.206;13.316;2024-03-08T04:14:09;32.33;;;10.82;;
10659;SDS011;5378;53.206;13.316;2024-03-08T04:16:56;41.15;;;11.77;;
10659;SDS011;5378;53.206;13.316;2024-03-08T04:19:44;36.13;;;12.27;;
10659;SDS011;5378;53.206;13.316;2024-03-08T04:22:34;35.88;;;11.98;;
10659;SDS011;5378;53.206;13.316;2024-03-08T04:25:21;39.67;;;13.05;;
10659;SDS011;5378;53.206;13.316;2024-03-08T04:28:08;50.60;;;14.00;;
10659;SDS011;5378;53.206;13.316;2024-03-08T04:30:57;34.67;;;14.27;;
10659;SDS011;5378;53.206;13.316;2024-03-08T04:33:46;38.35;;;12.35;;
10659;SDS011;5378;53.206;13.316;2024-03-08T04:36:35;61.10;;;14.30;;
10659;SDS011;5378;53.206;13.316;2024-03-08T04:39:22;41.30;;;13.52;;
10659;SDS011;5378;53.206;13.316;2024-03-08T04:42:09;34.38;;;12.68;;
10659;SDS011;5378;53.206;13.316;2024-03-08T04:44:56;37.63;;;11.60;;
10659;SDS011;5378;53.206;13.316;2024-03-08T04:47:44;35.60;;;12.00;;
10659;SDS011;5378;53.206;13.316;2024-03-08T04:50:31;42.33;;;11.55;;
10659;SDS011;5378;53.206;13.316;2024-03-08T04:53:19;34.75;;;13.20;;
10659;SDS011;5378;53.206;13.316;2024-03-08T04:56:07;46.00;;;13.93;;
10659;SDS011;5378;53.206;13.316;2024-03-08T04:58:54;44.20;;;13.05;;
10659;SDS011;5378;53.206;13.316;2024-03-08T05:01:41;36.72;;;12.65;;
10659;SDS011;5378;53.206;13.316;2024-03-08T05:04:29;49.25;;;14.48;;
10659;SDS011;5378;53.206;13.316;2024-03-08T05:07:16;42.35;;;13.35;;
10659;SDS011;5378;53.206;13.316;2024-03-08T05:10:05;26.23;;;10.63;;
10659;SDS011;5378;53.206;13.316;2024-03-08T05:12:54;35.25;;;13.10;;
10659;SDS011;5378;53.206;13.316;2024-03-08T05:15:41;43.78;;;13.70;;
10659;SDS011;5378;53.206;13.316;2024-03-08T05:18:29;38.90;;;12.40;;
10659;SDS011;5378;53.206;13.316;2024-03-08T05:21:17;30.75;;;11.63;;
10659;SDS011;5378;53.206;13.316;2024-03-08T05:24:06;27.48;;;11.25;;
10659;SDS011;5378;53.206;13.316;2024-03-08T05:26:56;39.03;;;12.57;;
10659;SDS011;5378;53.206;13.316;2024-03-08T05:29:45;23.67;;;9.88;;
10659;SDS011;5378;53.206;13.316;2024-03-08T05:32:33;46.97;;;13.88;;
10659;SDS011;5378;53.206;13.316;2024-03-08T05:35:20;52.03;;;12.63;;
10659;SDS011;5378;53.206;13.316;2024-03-08T05:38:07;46.85;;;14.20;;
10659;SDS011;5378;53.206;13.316;2024-03-08T05:40:54;39.17;;;13.35;;
10659;SDS011;5378;53.206;13.316;2024-03-08T05:43:43;52.10;;;14.10;;
10659;SDS011;5378;53.206;13.316;2024-03-08T05:46:30;52.70;;;11.35;;
10659;SDS011;5378;53.206;13.316;2024-03-08T05:49:17;42.53;;;14.02;;
10659;SDS011;5378;53.206;13.316;2024-03-08T05:52:04;46.20;;;13.98;;
10659;SDS011;5378;53.206;13.316;2024-03-08T05:54:51;48.72;;;15.52;;
10659;SDS011;5378;53.206;13.316;2024-03-08T05:57:39;38.35;;;12.13;;
10659;SDS011;5378;53.206;13.316;2024-03-08T06:00:27;45.65;;;13.43;;
10659;SDS011;5378;53.206;13.316;2024-03-08T06:03:16;42.28;;;12.82;;
10659;SDS011;5378;53.206;13.316;2024-03-08T06:06:06;43.15;;;13.85;;
10659;SDS011;5378;53.206;13.316;2024-03-08T06:08:54;43.83;;;13.30;;
10659;SDS011;5378;53.206;13.316;2024-03-08T06:11:42;44.80;;;12.23;;
10659;SDS011;5378;53.206;13.316;2024-03-08T06:14:29;29.67;;;12.38;;
10659;SDS011;5378;53.206;13.316;2024-03-08T06:17:18;45.72;;;14.32;;
10659;SDS011;5378;53.206;13.316;2024-03-08T06:20:06;50.33;;;11.80;;
10659;SDS011;5378;53.206;13.316;2024-03-08T06:22:56;43.75;;;15.15;;
10659;SDS011;5378;53.206;13.316;2024-03-08T06:25:43;44.83;;;15.50;;
10659;SDS011;5378;53.206;13.316;2024-03-08T06:28:31;38.42;;;14.05;;
10659;SDS011;5378;53.206;13.316;2024-03-08T06:31:20;37.87;;;13.70;;
10659;SDS011;5378;53.206;13.316;2024-03-08T06:34:08;36.80;;;13.63;;
10659;SDS011;5378;53.206;13.316;2024-03-08T06:36:56;43.25;;;13.50;;
10659;SDS011;5378;53.206;13.316;2024-03-08T06:39:46;41.03;;;14.80;;
10659;SDS011;5378;53.206;13.316;2024-03-08T06:42:33;36.13;;;13.33;;
10659;SDS011;5378;53.206;13.316;2024-03-08T06:45:20;30.67;;;12.10;;
10659;SDS011;5378;53.206;13.316;2024-03-08T06:48:09;42.70;;;13.80;;
10659;SDS011;5378;53.206;13.316;2024-03-08T06:50:57;32.83;;;12.57;;
10659;SDS011;5378;53.206;13.316;2024-03-08T06:53:45;36.23;;;11.03;;
10659;SDS011;5378;53.206;13.316;2024-03-08T06:56:32;39.03;;;12.97;;
10659;SDS011;5378;53.206;13.316;2024-03-08T06:59:19;42.13;;;12.17;;
10659;SDS011;5378;53.206;13.316;2024-03-08T07:02:07;43.20;;;14.47;;
10659;SDS011;5378;53.206;13.316;2024-03-08T07:04:55;54.40;;;14.20;;
10659;SDS011;5378;53.206;13.316;2024-03-08T07:07:43;33.97;;;12.97;;
10659;SDS011;5378;53.206;13.316;2024-03-08T07:10:30;35.50;;;13.60;;
10659;SDS011;5378;53.206;13.316;2024-03-08T07:13:17;32.77;;;12.73;;
10659;SDS011;5378;53.206;13.316;2024-03-08T07:16:04;31.60;;;12.70;;
10659;SDS011;5378;53.206;13.316;2024-03-08T07:18:53;38.13;;;12.17;;
10659;SDS011;5378;53.206;13.316;2024-03-08T07:21:40;38.43;;;13.27;;
10659;SDS011;5378;53.206;13.316;2024-03-08T07:24:29;36.93;;;13.10;;
10659;SDS011;5378;53.206;13.316;2024-03-08T07:27:25;33.97;;;14.30;;
10659;SDS011;5378;53.206;13.316;2024-03-08T07:30:15;32.33;;;12.43;;
10659;SDS011;5378;53.206;13.316;2024-03-08T07:33:24;33.80;;;12.80;;
10659;SDS011;5378;53.206;13.316;2024-03-08T07:36:12;36.83;;;13.43;;
10659;SDS011;5378;53.206;13.316;2024-03-08T07:39:00;35.57;;;12.97;;
10659;SDS011;5378;53.206;13.316;2024-03-08T07:41:48;48.90;;;13.40;;
10659;SDS011;5378;53.206;13.316;2024-03-08T07:44:38;38.87;;;13.00;;
10659;SDS011;5378;53.206;13.316;2024-03-08T07:47:25;31.17;;;13.00;;
10659;SDS011;5378;53.206;13.316;2024-03-08T07:50:12;54.30;;;16.77;;
10659;SDS011;5378;53.206;13.316;2024-03-08T07:53:02;41.90;;;15.20;;
10659;SDS011;5378;53.206;13.316;2024-03-08T07:55:49;41.60;;;15.00;;
10659;SDS011;5378;53.206;13.316;2024-03-08T07:58:38;58.53;;;13.87;;
10659;SDS011;5378;53.206;13.316;2024-03-08T08:01:26;39.77;;;13.83;;
10659;SDS011;5378;53.206;13.316;2024-03-08T08:04:13;34.50;;;13.70;;
10659;SDS011;5378;53.206;13.316;2024-03-08T08:07:03;26.30;;;11.67;;
10659;SDS011;5378;53.206;13.316;2024-03-08T08:09:50;31.43;;;13.37;;
10659;SDS011;5378;53.206;13.316;2024-03-08T08:12:39;33.83;;;13.97;;
10659;SDS011;5378;53.206;13.316;2024-03-08T08:15:28;29.90;;;12.33;;
10659;SDS011;5378;53.206;13.316;2024-03-08T08:18:15;33.10;;;13.63;;
10659;SDS011;5378;53.206;13.316;2024-03-08T08:21:05;28.67;;;11.60;;
10659;SDS011;5378;53.206;13.316;2024-03-08T08:23:52;28.73;;;13.03;;
10659;SDS011;5378;53.206;13.316;2024-03-08T08:26:40;36.57;;;13.23;;
10659;SDS011;5378;53.206;13.316;2024-03-08T08:29:27;33.27;;;13.43;;
10659;SDS011;5378;53.206;13.316;2024-03-08T08:32:16;36.30;;;13.00;;
10659;SDS011;5378;53.206;13.316;2024-03-08T08:35:04;22.90;;;10.83;;
10659;SDS011;5378;53.206;13.316;2024-03-08T08:37:53;28.30;;;11.60;;
10659;SDS011;5378;53.206;13.316;2024-03-08T08:40:40;28.27;;;12.20;;
10659;SDS011;5378;53.206;13.316;2024-03-08T08:43:27;29.03;;;12.50;;
10659;SDS011;5378;53.206;13.316;2024-03-08T08:46:16;28.30;;;11.60;;
10659;SDS011;5378;53.206;13.316;2024-03-08T08:49:06;28.00;;;11.63;;
10659;SDS011;5378;53.206;13.316;2024-03-08T08:51:56;24.03;;;12.00;;
10659;SDS011;5378;53.206;13.316;2024-03-08T08:54:45;23.50;;;11.63;;
10659;SDS011;5378;53.206;13.316;2024-03-08T08:57:33;26.93;;;12.00;;
10659;SDS011;5378;53.206;13.316;2024-03-08T09:00:20;27.47;;;11.63;;
10659;SDS011;5378;53.206;13.316;2024-03-08T09:03:12;29.33;;;11.53;;
10659;SDS011;5378;53.206;13.316;2024-03-08T09:06:00;25.63;;;11.60;;
10659;SDS011;5378;53.206;13.316;2024-03-08T09:08:48;21.90;;;10.23;;
10659;SDS011;5378;53.206;13.316;2024-03-08T09:11:35;26.10;;;12.47;;
10659;SDS011;5378;53.206;13.316;2024-03-08T09:14:24;30.07;;;11.73;;
10659;SDS011;5378;53.206;13.316;2024-03-08T09:17:11;22.87;;;10.57;;
10659;SDS011;5378;53.206;13.316;2024-03-08T09:20:03;40.40;;;12.90;;
10659;SDS011;5378;53.206;13.316;2024-03-08T09:22:53;30.23;;;12.40;;
10659;SDS011;5378;53.206;13.316;2024-03-08T09:25:40;28.53;;;11.73;;
10659;SDS011;5378;53.206;13.316;2024-03-08T09:28:28;21.53;;;10.13;;
10659;SDS011;5378;53.206;13.316;2024-03-08T09:31:16;31.60;;;10.63;;
10659;SDS011;5378;53.206;13.316;2024-03-08T09:34:03;33.77;;;13.20;;
10659;SDS011;5378;53.206;13.316;2024-03-08T09:36:50;27.23;;;11.43;;
10659;SDS011;5378;53.206;13.316;2024-03-08T09:39:39;37.17;;;14.67;;
10659;SDS011;5378;53.206;13.316;2024-03-08T09:42:26;46.00;;;16.33;;
10659;SDS011;5378;53.206;13.316;2024-03-08T09:45:13;40.77;;;11.60;;
10659;SDS011;5378;53.206;13.316;2024-03-08T09:48:01;34.53;;;11.80;;
10659;SDS011;5378;53.206;13.316;2024-03-08T09:50:56;38.67;;;13.57;;
10659;SDS011;5378;53.206;13.316;2024-03-08T09:53:43;33.40;;;12.50;;
10659;SDS011;5378;53.206;13.316;2024-03-08T09:56:32;24.83;;;11.00;;
10659;SDS011;5378;53.206;13.316;2024-03-08T09:59:19;20.50;;;10.07;;
10659;SDS011;5378;53.206;13.316;2024-03-08T10:02:27;22.37;;;9.67;;
10659;SDS011;5378;53.206;13.316;2024-03-08T10:05:16;22.90;;;10.20;;
10659;SDS011;5378;53.206;13.316;2024-03-08T10:08:05;26.20;;;10.80;;
10659;SDS011;5378;53.206;13.316;2024-03-08T10:10:53;33.80;;;11.80;;
10659;SDS011;5378;53.206;13.316;2024-03-08T10:13:41;29.77;;;11.77;;
10659;SDS011;5378;53.206;13.316;2024-03-08T10:16:28;29.80;;;11.10;;
10659;SDS011;5378;53.206;13.316;2024-03-08T10:19:15;31.77;;;12.70;;
10659;SDS011;5378;53.206;13.316;2024-03-08T10:22:03;25.83;;;9.87;;
10659;SDS011;5378;53.206;13.316;2024-03-08T10:24:51;28.10;;;11.20;;
10659;SDS011;5378;53.206;13.316;2024-03-08T10:27:39;32.10;;;10.97;;
10659;SDS011;5378;53.206;13.316;2024-03-08T10:30:26;26.80;;;11.30;;
10659;SDS011;5378;53.206;13.316;2024-03-08T10:33:15;29.50;;;10.23;;
10659;SDS011;5378;53.206;13.316;2024-03-08T10:36:02;21.40;;;9.63;;
10659;SDS011;5378;53.206;13.316;2024-03-08T10:38:51;25.77;;;9.97;;
10659;SDS011;5378;53.206;13.316;2024-03-08T10:41:40;30.90;;;10.80;;
10659;SDS011;5378;53.206;13.316;2024-03-08T10:44:40;23.63;;;10.17;;
10659;SDS011;5378;53.206;13.316;2024-03-08T10:47:38;32.63;;;9.80;;
10659;SDS011;5378;53.206;13.316;2024-03-08T10:50:28;24.47;;;10.73;;
10659;SDS011;5378;53.206;13.316;2024-03-08T10:53:16;21.97;;;9.50;;
10659;SDS011;5378;53.206;13.316;2024-03-08T10:56:06;23.73;;;10.90;;
10659;SDS011;5378;53.206;13.316;2024-03-08T10:58:56;25.10;;;9.23;;
10659;SDS011;5378;53.206;13.316;2024-03-08T11:01:43;20.70;;;8.70;;
10659;SDS011;5378;53.206;13.316;2024-03-08T11:04:30;29.47;;;10.53;;
10659;SDS011;5378;53.206;13.316;2024-03-08T11:07:19;20.30;;;9.00;;
10659;SDS011;5378;53.206;13.316;2024-03-08T11:10:07;33.93;;;10.33;;
10659;SDS011;5378;53.206;13.316;2024-03-08T11:13:05;28.17;;;10.17;;
10659;SDS011;5378;53.206;13.316;2024-03-08T11:16:39;25.47;;;8.83;;
10659;SDS011;5378;53.206;13.316;2024-03-08T11:19:30;23.43;;;9.60;;
10659;SDS011;5378;53.206;13.316;2024-03-08T11:22:21;24.17;;;10.30;;
10659;SDS011;5378;53.206;13.316;2024-03-08T11:25:29;21.13;;;8.50;;
10659;SDS011;5378;53.206;13.316;2024-03-08T11:28:19;20.80;;;9.70;;
10659;SDS011;5378;53.206;13.316;2024-03-08T11:31:23;25.50;;;10.13;;
10659;SDS011;5378;53.206;13.316;2024-03-08T11:34:15;29.47;;;10.20;;
10659;SDS011;5378;53.206;13.316;2024-03-08T11:37:04;30.53;;;10.43;;
10659;SDS011;5378;53.206;13.316;2024-03-08T11:39:55;24.53;;;10.60;;
10659;SDS011;5378;53.206;13.316;2024-03-08T11:42:44;27.40;;;11.80;;
10659;SDS011;5378;53.206;13.316;2024-03-08T11:45:34;21.37;;;9.67;;
10659;SDS011;5378;53.206;13.316;2024-03-08T11:48:22;28.67;;;11.40;;
10659;SDS011;5378;53.206;13.316;2024-03-08T11:51:11;21.47;;;9.43;;
10659;SDS011;5378;53.206;13.316;2024-03-08T11:54:00;24.00;;;10.03;;
10659;SDS011;5378;53.206;13.316;2024-03-08T11:56:51;28.40;;;10.40;;
10659;SDS011;5378;53.206;13.316;2024-03-08T11:59:38;26.20;;;9.47;;
10659;SDS011;5378;53.206;13.316;2024-03-08T12:02:25;22.13;;;9.30;;
10659;SDS011;5378;53.206;13.316;2024-03-08T12:05:15;22.33;;;10.17;;
10659;SDS011;5378;53.206;13.316;2024-03-08T12:08:04;19.97;;;8.80;;
10659;SDS011;5378;53.206;13.316;2024-03-08T12:10:53;23.30;;;10.27;;
10659;SDS011;5378;53.206;13.316;2024-03-08T12:13:44;26.97;;;10.60;;
10659;SDS011;5378;53.206;13.316;2024-03-08T12:16:36;22.33;;;9.60;;
10659;SDS011;5378;53.206;13.316;2024-03-08T12:19:23;20.10;;;8.67;;
10659;SDS011;5378;53.206;13.316;2024-03-08T12:22:10;22.47;;;9.20;;
10659;SDS011;5378;53.206;13.316;2024-03-08T12:25:06;22.90;;;9.33;;
10659;SDS011;5378;53.206;13.316;2024-03-08T12:27:56;23.73;;;10.50;;
10659;SDS011;5378;53.206;13.316;2024-03-08T12:30:45;25.10;;;10.07;;
10659;SDS011;5378;53.206;13.316;2024-03-08T12:33:34;24.70;;;10.67;;
10659;SDS011;5378;53.206;13.316;2024-03-08T12:36:22;22.43;;;9.90;;
10659;SDS011;5378;53.206;13.316;2024-03-08T12:39:09;24.37;;;9.50;;
10659;SDS011;5378;53.206;13.316;2024-03-08T12:41:59;25.10;;;9.63;;
10659;SDS011;5378;53.206;13.316;2024-03-08T12:44:46;32.93;;;10.43;;
10659;SDS011;5378;53.206;13.316;2024-03-08T12:47:33;21.13;;;9.13;;
10659;SDS011;5378;53.206;13.316;2024-03-08T12:50:20;23.37;;;8.87;;
10659;SDS011;5378;53.206;13.316;2024-03-08T12:53:08;18.30;;;7.40;;
10659;SDS011;5378;53.206;13.316;2024-03-08T12:55:55;18.43;;;7.97;;
10659;SDS011;5378;53.206;13.316;2024-03-08T12:58:44;22.80;;;9.13;;
10659;SDS011;5378;53.206;13.316;2024-03-08T13:01:31;23.17;;;8.87;;
10659;SDS011;5378;53.206;13.316;2024-03-08T13:04:18;20.43;;;8.50;;
10659;SDS011;5378;53.206;13.316;2024-03-08T13:07:06;17.07;;;7.80;;
10659;SDS011;5378;53.206;13.316;2024-03-08T13:09:54;24.23;;;8.87;;
10659;SDS011;5378;53.206;13.316;2024-03-08T13:12:42;23.77;;;9.57;;
10659;SDS011;5378;53.206;13.316;2024-03-08T13:15:30;26.80;;;8.00;;
10659;SDS011;5378;53.206;13.316;2024-03-08T13:18:19;18.90;;;7.87;;
10659;SDS011;5378;53.206;13.316;2024-03-08T13:21:06;22.33;;;8.40;;
10659;SDS011;5378;53.206;13.316;2024-03-08T13:23:55;26.90;;;7.57;;
10659;SDS011;5378;53.206;13.316;2024-03-08T13:26:44;22.37;;;8.00;;
10659;SDS011;5378;53.206;13.316;2024-03-08T13:29:32;17.67;;;7.70;;
10659;SDS011;5378;53.206;13.316;2024-03-08T13:32:21;15.97;;;7.17;;
10659;SDS011;5378;53.206;13.316;2024-03-08T13:35:09;16.10;;;7.73;;
10659;SDS011;5378;53.206;13.316;2024-03-08T13:37:58;18.93;;;7.10;;
10659;SDS011;5378;53.206;13.316;2024-03-08T13:40:45;14.07;;;6.90;;
10659;SDS011;5378;53.206;13.316;2024-03-08T13:43:34;17.63;;;7.17;;
10659;SDS011;5378;53.206;13.316;2024-03-08T13:46:22;17.40;;;7.80;;
10659;SDS011;5378;53.206;13.316;2024-03-08T13:49:12;22.20;;;7.10;;
10659;SDS011;5378;53.206;13.316;2024-03-08T13:51:59;15.23;;;6.80;;
10659;SDS011;5378;53.206;13.316;2024-03-08T13:54:47;16.50;;;7.17;;
10659;SDS011;5378;53.206;13.316;2024-03-08T13:57:34;13.13;;;5.83;;
10659;SDS011;5378;53.206;13.316;2024-03-08T14:00:21;19.87;;;8.20;;
10659;SDS011;5378;53.206;13.316;2024-03-08T14:03:11;22.70;;;7.67;;
10659;SDS011;5378;53.206;13.316;2024-03-08T14:05:59;16.93;;;8.00;;
10659;SDS011;5378;53.206;13.316;2024-03-08T14:08:46;13.43;;;6.47;;
10659;SDS011;5378;53.206;13.316;2024-03-08T14:11:33;16.83;;;6.27;;
10659;SDS011;5378;53.206;13.316;2024-03-08T14:14:20;13.50;;;6.80;;
10659;SDS011;5378;53.206;13.316;2024-03-08T14:17:09;16.87;;;7.53;;
10659;SDS011;5378;53.206;13.316;2024-03-08T14:19:56;14.37;;;7.20;;
10659;SDS011;5378;53.206;13.316;2024-03-08T14:22:45;24.77;;;8.30;;
10659;SDS011;5378;53.206;13.316;2024-03-08T14:25:32;14.87;;;6.97;;
10659;SDS011;5378;53.206;13.316;2024-03-08T14:28:19;17.37;;;8.03;;
10659;SDS011;5378;53.206;13.316;2024-03-08T14:31:08;20.47;;;8.80;;
10659;SDS011;5378;53.206;13.316;2024-03-08T14:33:57;20.20;;;8.13;;
10659;SDS011;5378;53.206;13.316;2024-03-08T14:36:44;20.50;;;7.37;;
10659;SDS011;5378;53.206;13.316;2024-03-08T14:39:32;16.87;;;8.07;;
10659;SDS011;5378;53.206;13.316;2024-03-08T14:42:20;22.60;;;8.20;;
10659;SDS011;5378;53.206;13.316;2024-03-08T14:45:08;16.97;;;7.17;;
10659;SDS011;5378;53.206;13.316;2024-03-08T14:47:55;22.30;;;8.10;;
10659;SDS011;5378;53.206;13.316;2024-03-08T14:50:43;15.97;;;6.70;;
10659;SDS011;5378;53.206;13.316;2024-03-08T14:53:32;17.77;;;7.63;;
10659;SDS011;5378;53.206;13.316;2024-03-08T14:56:21;20.03;;;8.30;;
10659;SDS011;5378;53.206;13.316;2024-03-08T14:59:08;16.90;;;7.43;;
10659;SDS011;5378;53.206;13.316;2024-03-08T15:01:55;19.50;;;7.03;;
10659;SDS011;5378;53.206;13.316;2024-03-08T15:04:43;19.17;;;8.43;;
10659;SDS011;5378;53.206;13.316;2024-03-08T15:07:38;24.63;;;8.13;;
10659;SDS011;5378;53.206;13.316;2024-03-08T15:10:26;23.13;;;8.33;;
10659;SDS011;5378;53.206;13.316;2024-03-08T15:13:16;25.77;;;8.30;;
10659;SDS011;5378;53.206;13.316;2024-03-08T15:16:08;20.57;;;8.60;;
10659;SDS011;5378;53.206;13.316;2024-03-08T15:19:00;20.27;;;8.53;;
10659;SDS011;5378;53.206;13.316;2024-03-08T15:21:50;18.87;;;9.23;;
10659;SDS011;5378;53.206;13.316;2024-03-08T15:24:42;25.40;;;8.77;;
10659;SDS011;5378;53.206;13.316;2024-03-08T15:27:29;16.20;;;7.70;;
10659;SDS011;5378;53.206;13.316;2024-03-08T15:30:17;20.13;;;7.87;;
10659;SDS011;5378;53.206;13.316;2024-03-08T15:33:08;22.20;;;8.23;;
10659;SDS011;5378;53.206;13.316;2024-03-08T15:35:56;20.20;;;9.27;;
10659;SDS011;5378;53.206;13.316;2024-03-08T15:38:46;18.73;;;7.70;;
10659;SDS011;5378;53.206;13.316;2024-03-08T15:41:35;23.30;;;10.37;;
10659;SDS011;5378;53.206;13.316;2024-03-08T15:44:22;20.10;;;9.13;;
10659;SDS011;5378;53.206;13.316;2024-03-08T15:47:10;17.63;;;7.60;;
10659;SDS011;5378;53.206;13.316;2024-03-08T15:49:57;29.67;;;9.10;;
10659;SDS011;5378;53.206;13.316;2024-03-08T15:52:49;23.23;;;8.40;;
10659;SDS011;5378;53.206;13.316;2024-03-08T15:55:38;21.53;;;9.60;;
10659;SDS011;5378;53.206;13.316;2024-03-08T15:58:26;22.40;;;9.97;;
10659;SDS011;5378;53.206;13.316;2024-03-08T16:01:15;16.77;;;7.60;;
10659;SDS011;5378;53.206;13.316;2024-03-08T16:04:04;24.67;;;9.27;;
10659;SDS011;5378;53.206;13.316;2024-03-08T16:06:52;25.20;;;8.50;;
10659;SDS011;5378;53.206;13.316;2024-03-08T16:09:39;22.37;;;8.40;;
10659;SDS011;5378;53.206;13.316;2024-03-08T16:12:27;23.07;;;8.67;;
10659;SDS011;5378;53.206;13.316;2024-03-08T16:15:14;29.40;;;9.27;;
10659;SDS011;5378;53.206;13.316;2024-03-08T16:18:02;21.13;;;7.73;;
10659;SDS011;5378;53.206;13.316;2024-03-08T16:20:52;21.10;;;8.80;;
10659;SDS011;5378;53.206;13.316;2024-03-08T16:23:40;18.00;;;7.73;;
10659;SDS011;5378;53.206;13.316;2024-03-08T16:26:29;15.73;;;8.30;;
10659;SDS011;5378;53.206;13.316;2024-03-08T16:29:20;28.27;;;10.43;;
10659;SDS011;5378;53.206;13.316;2024-03-08T16:32:07;20.17;;;8.07;;